createdAt,value
2018-05-03T00:01:09.686Z,0.00
2018-05-03T00:02:09.620Z,0.00
2018-05-03T00:04:01.388Z,0.00
2018-05-03T00:05:01.308Z,0.00
2018-05-03T00:06:53.114Z,0.00
2018-05-03T00:07:53.010Z,0.00
2018-05-03T00:09:44.756Z,0.00
2018-05-03T00:10:44.708Z,0.00
2018-05-03T00:12:36.449Z,0.00
2018-05-03T00:13:36.378Z,0.00
2018-05-03T00:15:28.149Z,0.00
2018-05-03T00:16:28.087Z,0.00
2018-05-03T00:18:19.914Z,0.00
2018-05-03T00:19:19.771Z,0.00
2018-05-03T00:21:11.527Z,0.00
2018-05-03T00:22:11.458Z,0.00
2018-05-03T00:24:03.237Z,0.00
2018-05-03T00:25:03.166Z,0.00
2018-05-03T00:26:54.948Z,0.00
2018-05-03T00:27:54.883Z,0.00
2018-05-03T00:29:46.680Z,0.00
2018-05-03T00:30:46.633Z,0.00
2018-05-03T00:32:38.408Z,0.00
2018-05-03T00:33:38.336Z,0.00
2018-05-03T00:35:30.107Z,0.00
2018-05-03T00:36:30.045Z,0.00
2018-05-03T00:38:21.807Z,0.00
2018-05-03T00:39:21.734Z,0.00
2018-05-03T00:41:13.483Z,0.00
2018-05-03T00:42:13.416Z,0.00
2018-05-03T00:44:05.208Z,0.00
2018-05-03T00:45:05.131Z,0.00
2018-05-03T00:46:56.876Z,0.00
2018-05-03T00:47:56.818Z,0.00
2018-05-03T00:49:48.582Z,0.00
2018-05-03T00:50:48.506Z,0.00
2018-05-03T00:52:40.276Z,0.00
2018-05-03T00:53:40.207Z,0.00
2018-05-03T00:55:31.994Z,0.00
2018-05-03T00:56:31.929Z,0.00
2018-05-03T00:58:23.689Z,0.00
2018-05-03T00:59:23.619Z,0.00
2018-05-03T01:01:15.364Z,0.00
2018-05-03T01:02:15.303Z,0.00
2018-05-03T01:04:07.082Z,0.00
2018-05-03T01:05:07.004Z,0.00
2018-05-03T01:06:58.750Z,0.00
2018-05-03T01:07:58.686Z,0.00
2018-05-03T01:09:50.462Z,0.00
2018-05-03T01:10:50.391Z,0.00
2018-05-03T01:12:42.140Z,0.00
2018-05-03T01:13:42.078Z,0.00
2018-05-03T01:15:33.832Z,0.00
2018-05-03T01:16:33.760Z,0.00
2018-05-03T01:18:25.517Z,0.00
2018-05-03T01:19:25.445Z,0.00
2018-05-03T01:21:17.191Z,0.00
2018-05-03T01:22:17.126Z,0.00
2018-05-03T01:24:08.900Z,0.00
2018-05-03T01:25:08.828Z,0.00
2018-05-03T01:27:00.597Z,0.00
2018-05-03T01:28:00.537Z,0.00
2018-05-03T01:29:52.298Z,0.00
2018-05-03T01:30:52.225Z,0.00
2018-05-03T01:32:43.974Z,0.00
2018-05-03T01:33:43.906Z,0.00
2018-05-03T01:35:35.668Z,0.00
2018-05-03T01:36:35.595Z,0.00
2018-05-03T01:38:27.345Z,0.00
2018-05-03T01:39:27.284Z,0.00
2018-05-03T01:41:19.040Z,0.00
2018-05-03T01:42:18.970Z,0.00
2018-05-03T01:44:10.728Z,0.00
2018-05-03T01:45:10.656Z,0.00
2018-05-03T01:47:02.428Z,0.00
2018-05-03T01:48:02.366Z,0.00
2018-05-03T01:49:54.123Z,0.00
2018-05-03T01:50:54.052Z,0.00
2018-05-03T01:52:45.795Z,0.00
2018-05-03T01:53:45.746Z,0.00
2018-05-03T01:55:37.491Z,0.00
2018-05-03T01:56:37.440Z,0.00
2018-05-03T01:58:29.170Z,0.00
2018-05-03T01:59:29.109Z,0.00
2018-05-03T02:01:20.860Z,0.00
2018-05-03T02:02:20.791Z,0.00
2018-05-03T02:04:12.550Z,0.00
2018-05-03T02:05:12.482Z,0.00
2018-05-03T02:07:04.224Z,0.00
2018-05-03T02:08:04.165Z,0.00
2018-05-03T02:09:55.917Z,0.00
2018-05-03T02:10:55.842Z,0.00
2018-05-03T02:12:47.589Z,0.00
2018-05-03T02:13:47.526Z,0.00
2018-05-03T02:15:39.284Z,0.00
2018-05-03T02:16:39.212Z,0.00
2018-05-03T02:18:30.965Z,0.00
2018-05-03T02:19:30.905Z,0.00
2018-05-03T02:21:22.663Z,0.00
2018-05-03T02:22:22.591Z,0.00
2018-05-03T02:24:14.330Z,0.00
2018-05-03T02:25:14.270Z,0.00
2018-05-03T02:27:06.033Z,0.00
2018-05-03T02:28:05.956Z,0.00
2018-05-03T02:29:57.714Z,0.00
2018-05-03T02:30:57.640Z,0.00
2018-05-03T02:32:49.396Z,0.00
2018-05-03T02:33:49.334Z,0.00
2018-05-03T02:35:41.094Z,0.00
2018-05-03T02:36:41.016Z,0.00
2018-05-03T02:38:32.767Z,0.00
2018-05-03T02:39:32.707Z,0.00
2018-05-03T02:41:24.463Z,0.00
2018-05-03T02:42:24.388Z,0.00
2018-05-03T02:44:16.148Z,0.00
2018-05-03T02:45:16.087Z,0.00
2018-05-03T02:47:07.852Z,0.00
2018-05-03T02:48:07.779Z,0.00
2018-05-03T02:49:59.526Z,0.00
2018-05-03T02:50:59.465Z,0.00
2018-05-03T02:52:51.225Z,0.00
2018-05-03T02:53:51.147Z,0.00
2018-05-03T02:55:43.010Z,0.00
2018-05-03T02:56:42.854Z,0.00
2018-05-03T02:58:34.628Z,0.00
2018-05-03T02:59:34.563Z,0.00
2018-05-03T03:01:26.322Z,0.00
2018-05-03T03:02:26.259Z,0.00
2018-05-03T03:04:18.020Z,0.00
2018-05-03T03:05:17.955Z,0.00
2018-05-03T03:07:09.721Z,0.00
2018-05-03T03:08:09.646Z,0.00
2018-05-03T03:10:01.392Z,0.00
2018-05-03T03:11:01.324Z,0.00
2018-05-03T03:12:53.123Z,0.00
2018-05-03T03:13:53.043Z,0.00
2018-05-03T03:15:44.824Z,0.00
2018-05-03T03:16:44.731Z,0.00
2018-05-03T03:18:36.484Z,0.00
2018-05-03T03:19:36.411Z,0.00
2018-05-03T03:21:28.160Z,0.00
2018-05-03T03:22:28.097Z,0.00
2018-05-03T03:24:19.871Z,0.00
2018-05-03T03:25:19.793Z,0.00
2018-05-03T03:27:11.581Z,0.00
2018-05-03T03:28:11.485Z,0.00
2018-05-03T03:30:03.243Z,0.00
2018-05-03T03:31:03.181Z,0.00
2018-05-03T03:32:54.954Z,0.00
2018-05-03T03:33:54.876Z,0.00
2018-05-03T03:35:46.617Z,0.00
2018-05-03T03:36:46.556Z,0.00
2018-05-03T03:38:38.323Z,5.63
2018-05-03T03:39:38.247Z,5.63
2018-05-03T03:41:30.034Z,5.63
2018-05-03T03:42:29.952Z,5.63
2018-05-03T03:44:21.706Z,5.63
2018-05-03T03:45:21.634Z,11.25
2018-05-03T03:47:13.385Z,11.25
2018-05-03T03:48:13.323Z,11.25
2018-05-03T03:50:05.099Z,11.25
2018-05-03T03:51:05.033Z,11.25
2018-05-03T03:52:56.774Z,16.88
2018-05-03T03:53:56.702Z,16.88
2018-05-03T03:55:48.449Z,16.88
2018-05-03T03:56:48.383Z,16.88
2018-05-03T03:58:40.152Z,16.88
2018-05-03T03:59:40.074Z,22.50
2018-05-03T04:01:31.832Z,22.50
2018-05-03T04:02:31.764Z,22.50
2018-05-03T04:04:23.512Z,28.13
2018-05-03T04:05:23.439Z,33.75
2018-05-03T04:07:15.188Z,33.75
2018-05-03T04:08:15.123Z,39.38
2018-05-03T04:10:06.904Z,45.00
2018-05-03T04:11:06.804Z,45.00
2018-05-03T04:12:58.567Z,50.63
2018-05-03T04:13:58.504Z,50.63
2018-05-03T04:15:50.261Z,56.25
2018-05-03T04:16:50.185Z,56.25
2018-05-03T04:18:41.947Z,61.88
2018-05-03T04:19:41.873Z,61.88
2018-05-03T04:21:33.636Z,67.50
2018-05-03T04:22:33.651Z,67.50
2018-05-03T04:24:25.315Z,73.13
2018-05-03T04:25:25.251Z,73.13
2018-05-03T04:27:17.016Z,78.75
2018-05-03T04:28:16.933Z,84.38
2018-05-03T04:30:08.694Z,84.38
2018-05-03T04:31:08.620Z,84.38
2018-05-03T04:33:00.422Z,90.00
2018-05-03T04:34:00.362Z,84.38
2018-05-03T04:35:52.117Z,84.38
2018-05-03T04:36:52.044Z,84.38
2018-05-03T04:38:43.797Z,95.63
2018-05-03T04:39:43.730Z,95.63
2018-05-03T04:41:35.491Z,95.63
2018-05-03T04:42:35.417Z,90.00
2018-05-03T04:44:27.189Z,90.00
2018-05-03T04:45:27.126Z,90.00
2018-05-03T04:47:18.880Z,101.25
2018-05-03T04:48:18.808Z,106.88
2018-05-03T04:50:10.561Z,106.88
2018-05-03T04:51:10.503Z,106.88
2018-05-03T04:53:02.253Z,112.50
2018-05-03T04:54:02.182Z,101.25
2018-05-03T04:55:53.951Z,90.00
2018-05-03T04:56:53.888Z,90.00
2018-05-03T04:58:45.626Z,90.00
2018-05-03T04:59:45.567Z,90.00
2018-05-03T05:01:37.323Z,95.63
2018-05-03T05:02:37.247Z,95.63
2018-05-03T05:04:29.009Z,101.25
2018-05-03T05:05:28.951Z,101.25
2018-05-03T05:07:20.708Z,101.25
2018-05-03T05:08:20.651Z,101.25
2018-05-03T05:10:12.443Z,106.88
2018-05-03T05:11:12.381Z,106.88
2018-05-03T05:13:04.140Z,101.25
2018-05-03T05:14:04.097Z,101.25
2018-05-03T05:15:55.845Z,106.88
2018-05-03T05:16:55.770Z,106.88
2018-05-03T05:18:47.563Z,118.13
2018-05-03T05:19:47.454Z,112.50
2018-05-03T05:21:39.231Z,118.13
2018-05-03T05:22:39.169Z,118.13
2018-05-03T05:24:30.882Z,135.00
2018-05-03T05:25:30.823Z,157.50
2018-05-03T05:27:22.612Z,146.25
2018-05-03T05:28:22.588Z,151.88
2018-05-03T05:30:14.281Z,163.13
2018-05-03T05:31:14.219Z,174.38
2018-05-03T05:33:05.976Z,185.63
2018-05-03T05:34:05.901Z,202.50
2018-05-03T05:35:57.674Z,213.75
2018-05-03T05:36:57.596Z,236.25
2018-05-03T05:38:49.455Z,236.25
2018-05-03T05:39:49.295Z,236.25
2018-05-03T05:41:41.106Z,258.75
2018-05-03T05:42:41.036Z,270.00
2018-05-03T05:44:32.798Z,258.75
2018-05-03T05:45:32.738Z,213.75
2018-05-03T05:47:24.507Z,343.13
2018-05-03T05:48:24.437Z,393.75
2018-05-03T05:50:16.283Z,466.88
2018-05-03T05:51:16.168Z,483.75
2018-05-03T05:53:07.988Z,556.88
2018-05-03T05:54:07.906Z,652.50
2018-05-03T05:55:59.660Z,641.25
2018-05-03T05:56:59.594Z,675.00
2018-05-03T05:58:51.386Z,630.00
2018-05-03T05:59:51.287Z,202.50
2018-05-03T06:01:43.102Z,196.88
2018-05-03T06:02:43.062Z,163.13
2018-05-03T06:04:34.789Z,168.75
2018-05-03T06:05:34.741Z,157.50
2018-05-03T06:07:26.522Z,168.75
2018-05-03T06:08:26.442Z,174.38
2018-05-03T06:10:18.276Z,163.13
2018-05-03T06:11:18.245Z,157.50
2018-05-03T06:13:09.930Z,157.50
2018-05-03T06:14:09.856Z,157.50
2018-05-03T06:16:01.650Z,146.25
2018-05-03T06:17:01.592Z,151.88
2018-05-03T06:18:53.349Z,168.75
2018-05-03T06:19:53.275Z,174.38
2018-05-03T06:21:45.037Z,191.25
2018-05-03T06:22:44.970Z,219.38
2018-05-03T06:24:36.761Z,264.38
2018-05-03T06:25:36.690Z,275.63
2018-05-03T06:27:28.507Z,303.75
2018-05-03T06:28:28.417Z,320.63
2018-05-03T06:30:20.199Z,326.25
2018-05-03T06:31:20.139Z,331.88
2018-05-03T06:33:11.896Z,326.25
2018-05-03T06:34:11.828Z,309.38
2018-05-03T06:36:03.592Z,270.00
2018-05-03T06:37:03.531Z,258.75
2018-05-03T06:38:55.381Z,230.63
2018-05-03T06:39:55.234Z,225.00
2018-05-03T06:41:47.027Z,247.50
2018-05-03T06:42:46.968Z,270.00
2018-05-03T06:44:38.740Z,320.63
2018-05-03T06:45:38.685Z,320.63
2018-05-03T06:47:30.455Z,303.75
2018-05-03T06:48:30.392Z,742.50
2018-05-03T06:50:22.190Z,354.38
2018-05-03T06:51:22.119Z,371.25
2018-05-03T06:53:13.916Z,720.00
2018-05-03T06:54:13.847Z,624.38
2018-05-03T06:56:05.671Z,551.25
2018-05-03T06:57:05.591Z,483.75
2018-05-03T06:58:57.419Z,551.25
2018-05-03T06:59:57.364Z,393.75
2018-05-03T07:01:49.091Z,270.00
2018-05-03T07:02:49.027Z,247.50
2018-05-03T07:04:40.774Z,241.88
2018-05-03T07:05:40.729Z,236.25
2018-05-03T07:07:32.564Z,213.75
2018-05-03T07:08:32.454Z,208.13
2018-05-03T07:10:24.208Z,202.50
2018-05-03T07:11:24.148Z,202.50
2018-05-03T07:13:15.935Z,202.50
2018-05-03T07:14:15.869Z,202.50
2018-05-03T07:16:07.624Z,213.75
2018-05-03T07:17:07.565Z,225.00
2018-05-03T07:18:59.337Z,247.50
2018-05-03T07:19:59.277Z,258.75
2018-05-03T07:21:51.048Z,281.25
2018-05-03T07:22:50.983Z,275.63
2018-05-03T07:24:42.777Z,281.25
2018-05-03T07:25:42.697Z,286.88
2018-05-03T07:27:34.477Z,281.25
2018-05-03T07:28:34.413Z,275.63
2018-05-03T07:30:26.183Z,281.25
2018-05-03T07:31:26.109Z,292.50
2018-05-03T07:33:17.857Z,303.75
2018-05-03T07:34:17.794Z,315.00
2018-05-03T07:36:09.565Z,343.13
2018-05-03T07:37:09.490Z,343.13
2018-05-03T07:39:01.287Z,365.63
2018-05-03T07:40:01.209Z,371.25
2018-05-03T07:41:53.072Z,371.25
2018-05-03T07:42:52.885Z,371.25
2018-05-03T07:44:44.644Z,382.50
2018-05-03T07:45:44.578Z,388.13
2018-05-03T07:47:36.357Z,388.13
2018-05-03T07:48:36.300Z,393.75
2018-05-03T07:50:28.059Z,405.00
2018-05-03T07:51:27.986Z,427.50
2018-05-03T07:53:19.733Z,416.25
2018-05-03T07:54:19.675Z,427.50
2018-05-03T07:56:11.458Z,405.00
2018-05-03T07:57:11.409Z,388.13
2018-05-03T07:59:03.188Z,376.88
2018-05-03T08:00:03.111Z,365.63
2018-05-03T08:01:54.913Z,354.38
2018-05-03T08:02:54.847Z,354.38
2018-05-03T08:04:46.641Z,376.88
2018-05-03T08:05:46.564Z,388.13
2018-05-03T08:07:38.346Z,461.25
2018-05-03T08:08:38.297Z,495.00
2018-05-03T08:10:30.090Z,551.25
2018-05-03T08:11:30.037Z,562.50
2018-05-03T08:13:21.776Z,607.50
2018-05-03T08:14:21.703Z,540.00
2018-05-03T08:16:13.528Z,568.13
2018-05-03T08:17:13.450Z,596.25
2018-05-03T08:19:05.221Z,663.75
2018-05-03T08:20:05.145Z,703.13
2018-05-03T08:21:56.906Z,770.63
2018-05-03T08:22:56.843Z,933.75
2018-05-03T08:24:48.613Z,1350.00
2018-05-03T08:25:48.542Z,2221.88
2018-05-03T08:27:40.294Z,2542.50
2018-05-03T08:28:40.316Z,2244.38
2018-05-03T08:30:32.008Z,1631.25
2018-05-03T08:31:31.940Z,2064.38
2018-05-03T08:33:23.740Z,2733.75
2018-05-03T08:34:23.639Z,1951.88
2018-05-03T08:36:15.431Z,1535.63
2018-05-03T08:37:15.371Z,2728.13
2018-05-03T08:39:07.192Z,1417.50
2018-05-03T08:40:07.129Z,2745.00
2018-05-03T08:41:58.901Z,2930.63
2018-05-03T08:42:58.911Z,1800.00
2018-05-03T08:44:50.618Z,2272.50
2018-05-03T08:45:50.552Z,2632.50
2018-05-03T08:47:42.337Z,2868.75
2018-05-03T08:48:42.273Z,2531.25
2018-05-03T08:50:34.067Z,984.38
2018-05-03T08:51:34.008Z,838.13
2018-05-03T08:53:25.789Z,810.00
2018-05-03T08:54:25.748Z,1068.75
2018-05-03T08:56:17.534Z,2604.38
2018-05-03T08:57:17.450Z,2137.50
2018-05-03T08:59:09.253Z,1771.88
2018-05-03T09:00:09.188Z,2638.13
2018-05-03T09:02:00.965Z,1766.25
2018-05-03T09:03:00.908Z,1091.25
2018-05-03T09:04:52.725Z,911.25
2018-05-03T09:05:52.674Z,1040.63
2018-05-03T09:07:44.719Z,1096.88
2018-05-03T09:08:44.414Z,1912.50
2018-05-03T09:10:36.217Z,2677.50
2018-05-03T09:11:36.154Z,1918.13
2018-05-03T09:13:27.938Z,3234.38
2018-05-03T09:14:27.878Z,3346.88
2018-05-03T09:16:19.666Z,3538.13
2018-05-03T09:17:19.604Z,3521.25
2018-05-03T09:19:11.379Z,3346.88
2018-05-03T09:20:11.333Z,3358.13
2018-05-03T09:22:03.127Z,2621.25
2018-05-03T09:23:03.060Z,2278.13
2018-05-03T09:24:54.832Z,3110.63
2018-05-03T09:25:54.806Z,3116.25
2018-05-03T09:27:46.562Z,3037.50
2018-05-03T09:28:46.504Z,3256.88
2018-05-03T09:30:38.279Z,3273.75
2018-05-03T09:31:38.233Z,3324.38
2018-05-03T09:33:30.020Z,3172.50
2018-05-03T09:34:29.958Z,3228.75
2018-05-03T09:36:21.744Z,3352.50
2018-05-03T09:37:21.683Z,3414.38
2018-05-03T09:39:13.515Z,3487.50
2018-05-03T09:40:13.410Z,3678.75
2018-05-03T09:42:05.204Z,3459.38
2018-05-03T09:43:05.136Z,3386.25
2018-05-03T09:44:56.909Z,3498.75
2018-05-03T09:45:56.861Z,3628.13
2018-05-03T09:47:48.649Z,3645.00
2018-05-03T09:48:48.603Z,3470.63
2018-05-03T09:50:40.371Z,3526.88
2018-05-03T09:51:40.356Z,3543.75
2018-05-03T09:53:32.109Z,3346.88
2018-05-03T09:54:32.051Z,3555.00
2018-05-03T09:56:23.835Z,3510.00
2018-05-03T09:57:23.772Z,2801.25
2018-05-03T09:59:15.578Z,3459.38
2018-05-03T10:00:15.524Z,3352.50
2018-05-03T10:02:07.310Z,3234.38
2018-05-03T10:03:07.252Z,3268.13
2018-05-03T10:04:59.031Z,2851.88
2018-05-03T10:05:58.976Z,2733.75
2018-05-03T10:07:50.778Z,3245.63
2018-05-03T10:08:50.722Z,3453.75
2018-05-03T10:10:42.481Z,3493.13
2018-05-03T10:11:42.440Z,3487.50
2018-05-03T10:13:34.218Z,3363.75
2018-05-03T10:14:34.172Z,3425.63
2018-05-03T10:16:26.000Z,3363.75
2018-05-03T10:17:25.950Z,3420.00
2018-05-03T10:19:17.766Z,3065.63
2018-05-03T10:20:17.706Z,2598.75
2018-05-03T10:22:09.489Z,2880.00
2018-05-03T10:23:09.432Z,3436.88
2018-05-03T10:25:01.211Z,3397.50
2018-05-03T10:26:01.160Z,3324.38
2018-05-03T10:27:52.953Z,3504.38
2018-05-03T10:28:52.893Z,3358.13
2018-05-03T10:30:44.676Z,3093.75
2018-05-03T10:31:44.627Z,3459.38
2018-05-03T10:33:36.417Z,3217.50
2018-05-03T10:34:36.365Z,3240.00
2018-05-03T10:36:28.156Z,3555.00
2018-05-03T10:37:28.120Z,3549.38
2018-05-03T10:39:19.892Z,3442.50
2018-05-03T10:40:19.836Z,3352.50
2018-05-03T10:42:11.766Z,2514.38
2018-05-03T10:43:11.694Z,3009.38
2018-05-03T10:45:03.492Z,3420.00
2018-05-03T10:46:03.448Z,3431.25
2018-05-03T10:47:55.231Z,3183.75
2018-05-03T10:48:55.171Z,3076.88
2018-05-03T10:50:46.945Z,2925.00
2018-05-03T10:51:46.898Z,2902.50
2018-05-03T10:53:38.701Z,2503.13
2018-05-03T10:54:38.631Z,3206.25
2018-05-03T10:56:30.400Z,2587.50
2018-05-03T10:57:30.399Z,2964.38
2018-05-03T10:59:22.135Z,2846.25
2018-05-03T11:00:22.073Z,2840.63
2018-05-03T11:02:13.852Z,3065.63
2018-05-03T11:03:13.804Z,3009.38
2018-05-03T11:05:05.596Z,1912.50
2018-05-03T11:06:05.532Z,781.88
2018-05-03T11:07:57.348Z,646.88
2018-05-03T11:08:57.258Z,613.13
2018-05-03T11:10:49.098Z,590.63
2018-05-03T11:11:49.023Z,590.63
2018-05-03T11:13:40.825Z,646.88
2018-05-03T11:14:40.765Z,590.63
2018-05-03T11:16:32.535Z,528.75
2018-05-03T11:17:32.489Z,534.38
2018-05-03T11:19:24.260Z,528.75
2018-05-03T11:20:24.202Z,506.25
2018-05-03T11:22:15.995Z,483.75
2018-05-03T11:23:15.941Z,483.75
2018-05-03T11:25:07.728Z,500.63
2018-05-03T11:26:07.667Z,506.25
2018-05-03T11:27:59.631Z,511.88
2018-05-03T11:28:59.408Z,528.75
2018-05-03T11:30:51.168Z,495.00
2018-05-03T11:31:51.118Z,500.63
2018-05-03T11:33:42.922Z,540.00
2018-05-03T11:34:42.856Z,556.88
2018-05-03T11:36:34.627Z,534.38
2018-05-03T11:37:34.567Z,551.25
2018-05-03T11:39:26.343Z,579.38
2018-05-03T11:40:26.279Z,523.13
2018-05-03T11:42:18.043Z,495.00
2018-05-03T11:43:17.984Z,517.50
2018-05-03T11:45:09.784Z,517.50
2018-05-03T11:46:09.724Z,511.88
2018-05-03T11:48:01.494Z,540.00
2018-05-03T11:49:01.438Z,556.88
2018-05-03T11:50:53.212Z,562.50
2018-05-03T11:51:53.150Z,540.00
2018-05-03T11:53:44.913Z,500.63
2018-05-03T11:54:44.849Z,495.00
2018-05-03T11:56:36.613Z,506.25
2018-05-03T11:57:36.567Z,489.38
2018-05-03T11:59:28.371Z,517.50
2018-05-03T12:00:28.276Z,528.75
2018-05-03T12:02:20.085Z,483.75
2018-05-03T12:03:19.993Z,495.00
2018-05-03T12:05:11.761Z,540.00
2018-05-03T12:06:11.700Z,568.13
2018-05-03T12:08:03.475Z,630.00
2018-05-03T12:09:03.413Z,725.63
2018-05-03T12:10:55.206Z,675.00
2018-05-03T12:11:55.133Z,652.50
2018-05-03T12:13:46.926Z,658.13
2018-05-03T12:14:46.859Z,658.13
2018-05-03T12:16:38.655Z,658.13
2018-05-03T12:17:38.613Z,635.63
2018-05-03T12:19:30.420Z,590.63
2018-05-03T12:20:30.350Z,551.25
2018-05-03T12:22:22.105Z,528.75
2018-05-03T12:23:22.050Z,528.75
2018-05-03T12:25:13.826Z,528.75
2018-05-03T12:26:13.765Z,534.38
2018-05-03T12:28:05.515Z,517.50
2018-05-03T12:29:05.467Z,511.88
2018-05-03T12:30:57.248Z,483.75
2018-05-03T12:31:57.161Z,483.75
2018-05-03T12:33:48.939Z,483.75
2018-05-03T12:34:48.892Z,483.75
2018-05-03T12:36:40.689Z,500.63
2018-05-03T12:37:40.614Z,511.88
2018-05-03T12:39:32.432Z,489.38
2018-05-03T12:40:32.336Z,483.75
2018-05-03T12:42:24.119Z,472.50
2018-05-03T12:43:24.064Z,478.13
2018-05-03T12:45:15.859Z,455.63
2018-05-03T12:46:15.784Z,444.38
2018-05-03T12:48:07.613Z,433.13
2018-05-03T12:49:07.519Z,438.75
2018-05-03T12:50:59.300Z,495.00
2018-05-03T12:51:59.236Z,495.00
2018-05-03T12:53:51.024Z,427.50
2018-05-03T12:54:50.976Z,371.25
2018-05-03T12:56:42.753Z,337.50
2018-05-03T12:57:42.688Z,320.63
2018-05-03T12:59:34.486Z,315.00
2018-05-03T13:00:34.416Z,326.25
2018-05-03T13:02:26.208Z,303.75
2018-05-03T13:03:26.142Z,275.63
2018-05-03T13:05:17.919Z,298.13
2018-05-03T13:06:17.883Z,275.63
2018-05-03T13:08:09.608Z,258.75
2018-05-03T13:09:09.550Z,253.13
2018-05-03T13:11:01.326Z,258.75
2018-05-03T13:12:01.261Z,225.00
2018-05-03T13:13:53.016Z,241.88
2018-05-03T13:14:52.957Z,241.88
2018-05-03T13:16:44.784Z,236.25
2018-05-03T13:17:44.715Z,236.25
2018-05-03T13:19:36.483Z,230.63
2018-05-03T13:20:36.430Z,230.63
2018-05-03T13:22:28.200Z,225.00
2018-05-03T13:23:28.131Z,225.00
2018-05-03T13:25:19.904Z,225.00
2018-05-03T13:26:19.851Z,225.00
2018-05-03T13:28:11.587Z,219.38
2018-05-03T13:29:11.534Z,219.38
2018-05-03T13:31:03.299Z,225.00
2018-05-03T13:32:03.232Z,225.00
2018-05-03T13:33:55.012Z,225.00
2018-05-03T13:34:54.933Z,219.38
2018-05-03T13:36:46.722Z,196.88
2018-05-03T13:37:46.651Z,185.63
2018-05-03T13:39:38.414Z,202.50
2018-05-03T13:40:38.355Z,180.00
2018-05-03T13:42:30.124Z,174.38
2018-05-03T13:43:30.057Z,185.63
2018-05-03T13:45:21.818Z,168.75
2018-05-03T13:46:21.756Z,174.38
2018-05-03T13:48:13.515Z,180.00
2018-05-03T13:49:13.455Z,185.63
2018-05-03T13:51:05.227Z,180.00
2018-05-03T13:52:05.153Z,174.38
2018-05-03T13:53:56.916Z,185.63
2018-05-03T13:54:56.857Z,191.25
2018-05-03T13:56:48.620Z,180.00
2018-05-03T13:57:48.556Z,174.38
2018-05-03T13:59:40.332Z,163.13
2018-05-03T14:00:40.279Z,157.50
2018-05-03T14:02:32.049Z,157.50
2018-05-03T14:03:31.978Z,157.50
2018-05-03T14:05:23.734Z,168.75
2018-05-03T14:06:23.678Z,174.38
2018-05-03T14:08:15.482Z,180.00
2018-05-03T14:09:15.419Z,180.00
2018-05-03T14:11:07.197Z,174.38
2018-05-03T14:12:07.108Z,174.38
2018-05-03T14:13:58.879Z,174.38
2018-05-03T14:14:58.818Z,151.88
2018-05-03T14:16:50.583Z,174.38
2018-05-03T14:17:50.519Z,174.38
2018-05-03T14:19:42.290Z,174.38
2018-05-03T14:20:42.257Z,174.38
2018-05-03T14:22:34.000Z,168.75
2018-05-03T14:23:33.928Z,168.75
2018-05-03T14:25:25.709Z,168.75
2018-05-03T14:26:25.653Z,168.75
2018-05-03T14:28:17.433Z,174.38
2018-05-03T14:29:17.358Z,180.00
2018-05-03T14:31:09.156Z,180.00
2018-05-03T14:32:09.054Z,185.63
2018-05-03T14:34:00.818Z,191.25
2018-05-03T14:35:00.757Z,191.25
2018-05-03T14:36:52.524Z,208.13
2018-05-03T14:37:52.454Z,219.38
2018-05-03T14:39:44.223Z,241.88
2018-05-03T14:40:44.165Z,253.13
2018-05-03T14:42:35.962Z,225.00
2018-05-03T14:43:35.900Z,219.38
2018-05-03T14:45:27.675Z,213.75
2018-05-03T14:46:27.613Z,236.25
2018-05-03T14:48:19.405Z,219.38
2018-05-03T14:49:19.333Z,225.00
2018-05-03T14:51:11.120Z,185.63
2018-05-03T14:52:11.059Z,163.13
2018-05-03T14:54:02.821Z,151.88
2018-05-03T14:55:02.760Z,151.88
2018-05-03T14:56:54.515Z,163.13
2018-05-03T14:57:54.445Z,146.25
2018-05-03T14:59:46.229Z,157.50
2018-05-03T15:00:46.171Z,157.50
2018-05-03T15:02:37.932Z,140.63
2018-05-03T15:03:37.859Z,129.38
2018-05-03T15:05:29.646Z,135.00
2018-05-03T15:06:29.633Z,140.63
2018-05-03T15:08:21.394Z,157.50
2018-05-03T15:09:21.331Z,157.50
2018-05-03T15:11:13.095Z,157.50
2018-05-03T15:12:13.046Z,157.50
2018-05-03T15:14:04.796Z,157.50
2018-05-03T15:15:04.728Z,157.50
2018-05-03T15:16:56.530Z,157.50
2018-05-03T15:17:56.434Z,157.50
2018-05-03T15:19:48.195Z,163.13
2018-05-03T15:20:48.139Z,163.13
2018-05-03T15:22:39.925Z,168.75
2018-05-03T15:23:39.851Z,174.38
2018-05-03T15:25:31.600Z,180.00
2018-05-03T15:26:31.540Z,185.63
2018-05-03T15:28:23.451Z,202.50
2018-05-03T15:29:23.236Z,208.13
2018-05-03T15:31:15.021Z,219.38
2018-05-03T15:32:14.965Z,219.38
2018-05-03T15:34:06.754Z,196.88
2018-05-03T15:35:06.680Z,202.50
2018-05-03T15:36:58.432Z,202.50
2018-05-03T15:37:58.377Z,202.50
2018-05-03T15:39:50.137Z,196.88
2018-05-03T15:40:50.072Z,185.63
2018-05-03T15:42:41.831Z,174.38
2018-05-03T15:43:41.764Z,168.75
2018-05-03T15:45:33.543Z,146.25
2018-05-03T15:46:33.484Z,146.25
2018-05-03T15:48:25.248Z,157.50
2018-05-03T15:49:25.176Z,157.50
2018-05-03T15:51:16.935Z,168.75
2018-05-03T15:52:16.876Z,168.75
2018-05-03T15:54:08.645Z,157.50
2018-05-03T15:55:08.575Z,151.88
2018-05-03T15:57:00.341Z,135.00
2018-05-03T15:58:00.282Z,129.38
2018-05-03T15:59:52.093Z,123.75
2018-05-03T16:00:52.007Z,123.75
2018-05-03T16:02:43.766Z,123.75
2018-05-03T16:03:43.704Z,123.75
2018-05-03T16:05:35.462Z,123.75
2018-05-03T16:06:35.396Z,118.13
2018-05-03T16:08:27.184Z,118.13
2018-05-03T16:09:27.131Z,118.13
2018-05-03T16:11:18.860Z,118.13
2018-05-03T16:12:18.800Z,118.13
2018-05-03T16:14:10.635Z,118.13
2018-05-03T16:15:10.496Z,118.13
2018-05-03T16:17:02.252Z,112.50
2018-05-03T16:18:02.193Z,118.13
2018-05-03T16:19:53.965Z,112.50
2018-05-03T16:20:53.892Z,112.50
2018-05-03T16:22:45.673Z,106.88
2018-05-03T16:23:45.609Z,106.88
2018-05-03T16:25:37.368Z,106.88
2018-05-03T16:26:37.301Z,106.88
2018-05-03T16:28:29.091Z,106.88
2018-05-03T16:29:29.018Z,106.88
2018-05-03T16:31:20.787Z,106.88
2018-05-03T16:32:20.725Z,106.88
2018-05-03T16:34:12.486Z,101.25
2018-05-03T16:35:12.416Z,101.25
2018-05-03T16:37:04.201Z,101.25
2018-05-03T16:38:04.140Z,101.25
2018-05-03T16:39:55.904Z,101.25
2018-05-03T16:40:55.833Z,101.25
2018-05-03T16:42:47.587Z,101.25
2018-05-03T16:43:47.530Z,95.63
2018-05-03T16:45:39.330Z,95.63
2018-05-03T16:46:39.263Z,95.63
2018-05-03T16:48:31.043Z,95.63
2018-05-03T16:49:30.987Z,95.63
2018-05-03T16:51:22.786Z,90.00
2018-05-03T16:52:22.733Z,90.00
2018-05-03T16:54:14.499Z,90.00
2018-05-03T16:55:14.435Z,90.00
2018-05-03T16:57:06.219Z,90.00
2018-05-03T16:58:06.159Z,84.38
2018-05-03T16:59:57.957Z,84.38
2018-05-03T17:00:57.883Z,84.38
2018-05-03T17:02:49.674Z,84.38
2018-05-03T17:03:49.630Z,84.38
2018-05-03T17:05:41.404Z,84.38
2018-05-03T17:06:41.329Z,84.38
2018-05-03T17:08:33.127Z,78.75
2018-05-03T17:09:33.075Z,78.75
2018-05-03T17:11:24.858Z,78.75
2018-05-03T17:12:24.785Z,78.75
2018-05-03T17:14:16.638Z,73.13
2018-05-03T17:15:16.520Z,73.13
2018-05-03T17:17:08.289Z,73.13
2018-05-03T17:18:08.234Z,73.13
2018-05-03T17:20:00.034Z,73.13
2018-05-03T17:20:59.965Z,73.13
2018-05-03T17:22:51.749Z,67.50
2018-05-03T17:23:51.683Z,67.50
2018-05-03T17:25:43.482Z,67.50
2018-05-03T17:26:43.450Z,67.50
2018-05-03T17:28:35.198Z,67.50
2018-05-03T17:29:35.135Z,67.50
2018-05-03T17:31:26.897Z,61.88
2018-05-03T17:32:26.825Z,61.88
2018-05-03T17:34:18.800Z,61.88
2018-05-03T17:35:18.741Z,61.88
2018-05-03T17:37:10.499Z,56.25
2018-05-03T17:38:10.430Z,56.25
2018-05-03T17:40:02.222Z,56.25
2018-05-03T17:41:02.140Z,56.25
2018-05-03T17:42:53.895Z,50.63
2018-05-03T17:43:53.827Z,50.63
2018-05-03T17:45:45.602Z,50.63
2018-05-03T17:46:45.535Z,50.63
2018-05-03T17:48:37.280Z,45.00
2018-05-03T17:49:37.236Z,45.00
2018-05-03T17:51:29.009Z,45.00
2018-05-03T17:52:28.931Z,39.38
2018-05-03T17:54:20.727Z,39.38
2018-05-03T17:55:20.664Z,39.38
2018-05-03T17:57:12.459Z,39.38
2018-05-03T17:58:12.391Z,33.75
2018-05-03T18:00:04.172Z,33.75
2018-05-03T18:01:04.111Z,33.75
2018-05-03T18:02:55.870Z,28.13
2018-05-03T18:03:55.801Z,28.13
2018-05-03T18:05:47.564Z,28.13